Impacts TAF Board INFO
FOR SITUATIONAL AWARENESS. NOT TO BE USED FOR FLIGHT PLANNING PURPOSES.
IDs:

KMIA - Miami Intl, FL, US

Issued at 1120 UTC 22 Feb 2018
Updated at 1219 UTC 22 Feb 2018
Potential Impact None Slight Moderate High
Time1153Z 22/13Z 22/14Z 22/15Z 22/16Z 22/17Z 22/18Z 22/19Z 22/20Z 22/21Z 22/22Z 22/23Z 23/00Z 23/01Z>>
Type OBS PRVL PRVL PRVL PRVL PRVL PRVL PRVL PRVL PRVL PRVL PRVL PRVL PRVL
VIS 10 >6 >6 >6 >6 >6 >6 >6 >6 >6 >6 >6 >6 >6
CIG 40 -- 40 40 40 40 40 40 40 -- -- -- -- --
Cover OVC SCT BKN BKN BKN BKN BKN BKN BKN SCT SCT SCT SCT SCT
FltCat VFR VFR VFR VFR VFR VFR VFR VFR VFR VFR VFR VFR VFR VFR
WX -- -- -- -- -- -- -- -- -- -- -- -- -- --
WDir 80 90 100 100 100 100 100 100 100 90 90 90 90 90
WSpd 11 15 15 15 15 15 15 15 15 11 11 11 11 11
WGst -- -- 25 25 25 25 25 25 25 -- -- -- -- --

Raw TAF
KMIA 221120Z 2212/2318 09015KT P6SM SCT025 SCT035
  FM221400 10015G25KT P6SM SCT025 BKN040
  FM222100 09011KT P6SM SCT025 SCT040
  FM231000 10007KT P6SM SCT025 SCT040
  FM231400 11017KT P6SM SCT025 SCT040


Raw METAR
KMIA 221153Z 08011KT 10SM SCT022 BKN040 OVC080 23/21 A3032 RMK AO2 SLP268 60001 70001 T02330206 10239 20222 53012 $
KMIA 221053Z 08009KT 8SM FEW024 BKN038 OVC050 23/21 A3031 RMK AO2 RAB18E52 SLP263 P0001 T02280206 $
KMIA 221031Z 08011KT 7SM -RA FEW023 BKN042 OVC070 22/21 A3030 RMK AO2 RAB18 P0001 T02220206 $
KMIA 221024Z 09016KT 2 1/2SM -RA BR FEW023 BKN027 OVC045 23/21 A3030 RMK AO2 RAB18 P0001 T02280206 $
KMIA 220953Z 08009KT 7SM FEW025 BKN045 BKN075 24/21 A3029 RMK AO2 SLP257 T02390206 $

METAR Board
Radar Display
Forecast Discussion

FOR SITUATIONAL AWARENESS. NOT TO BE USED FOR FLIGHT PLANNING PURPOSES.